createdAt,value
2023-02-20T00:01:04.463Z,9.35
2023-02-20T00:03:31.643Z,9.90
2023-02-20T00:05:58.831Z,9.20
2023-02-20T00:08:25.966Z,9.77
2023-02-20T00:10:54.066Z,9.90
2023-02-20T00:13:21.248Z,10.57
2023-02-20T00:15:48.561Z,10.13
2023-02-20T00:18:16.318Z,10.25
2023-02-20T00:20:43.480Z,10.25
2023-02-20T00:23:10.981Z,9.60
2023-02-20T00:25:38.116Z,9.88
2023-02-20T00:28:05.839Z,9.82
2023-02-20T00:30:33.031Z,10.40
2023-02-20T00:33:00.470Z,9.07
2023-02-20T00:35:28.950Z,9.82
2023-02-20T00:37:56.908Z,9.60
2023-02-20T00:40:26.635Z,9.10
2023-02-20T00:42:53.971Z,9.82
2023-02-20T00:45:21.531Z,9.38
2023-02-20T00:47:48.717Z,9.65
2023-02-20T00:50:17.956Z,9.27
2023-02-20T00:52:45.791Z,9.18
2023-02-20T00:55:13.529Z,9.82
2023-02-20T00:57:40.744Z,9.80
2023-02-20T01:00:12.750Z,9.02
2023-02-20T01:02:40.042Z,9.27
2023-02-20T01:05:07.663Z,8.48
2023-02-20T01:07:35.880Z,8.77
2023-02-20T01:10:03.016Z,8.65
2023-02-20T01:12:30.147Z,8.95
2023-02-20T01:14:57.327Z,8.80
2023-02-20T01:17:24.365Z,8.80
2023-02-20T01:19:51.630Z,8.65
2023-02-20T01:22:20.633Z,8.90
2023-02-20T01:24:50.390Z,9.10
2023-02-20T01:27:17.997Z,9.10
2023-02-20T01:29:45.655Z,9.15
2023-02-20T01:32:15.006Z,10.10
2023-02-20T01:34:42.799Z,9.35
2023-02-20T01:37:14.244Z,9.52
2023-02-20T01:39:41.617Z,9.93
2023-02-20T01:42:15.254Z,9.40
2023-02-20T01:44:43.585Z,10.25
2023-02-20T01:47:18.107Z,9.80
2023-02-20T01:49:53.375Z,10.18
2023-02-20T01:52:32.067Z,9.85
2023-02-20T01:55:10.333Z,9.93
2023-02-20T01:57:41.904Z,9.98
2023-02-20T02:00:15.065Z,9.60
2023-02-20T02:02:55.784Z,10.00
2023-02-20T02:05:23.744Z,10.50
2023-02-20T02:07:56.583Z,10.73
2023-02-20T02:10:36.702Z,9.88
2023-02-20T02:13:04.260Z,10.35
2023-02-20T02:15:32.079Z,10.95
2023-02-20T02:18:23.250Z,10.38
2023-02-20T02:21:30.769Z,11.23
2023-02-20T02:27:18.964Z,10.45
2023-02-20T02:30:32.763Z,11.10
2023-02-20T02:33:21.502Z,10.98
2023-02-20T02:36:16.904Z,12.07
2023-02-20T02:39:19.162Z,11.63
2023-02-20T02:42:15.604Z,11.70
2023-02-20T02:44:54.569Z,12.70
2023-02-20T02:47:57.240Z,12.25
2023-02-20T02:50:34.699Z,12.90
2023-02-20T02:53:05.522Z,11.85
2023-02-20T02:55:36.442Z,13.27
2023-02-20T02:58:05.204Z,12.82
2023-02-20T03:00:58.786Z,13.05
2023-02-20T03:03:30.560Z,12.75
2023-02-20T03:06:03.250Z,12.70
2023-02-20T03:08:58.421Z,13.65
2023-02-20T03:11:30.543Z,13.27
2023-02-20T03:14:24.450Z,13.35
2023-02-20T03:17:34.083Z,14.35
2023-02-20T03:20:06.634Z,14.13
2023-02-20T03:22:47.189Z,13.13
2023-02-20T03:25:33.374Z,15.02
2023-02-20T03:28:09.910Z,14.93
2023-02-20T03:31:01.394Z,14.35
2023-02-20T03:34:15.677Z,14.45
2023-02-20T03:37:07.892Z,14.52
2023-02-20T03:40:00.269Z,14.82
2023-02-20T03:42:53.221Z,14.40
2023-02-20T03:45:31.698Z,15.45
2023-02-20T03:48:04.214Z,15.18
2023-02-20T03:50:33.638Z,15.05
2023-02-20T03:53:01.983Z,15.32
2023-02-20T03:55:29.376Z,15.43
2023-02-20T03:58:03.918Z,15.73
2023-02-20T04:00:40.919Z,16.95
2023-02-20T04:03:16.793Z,16.02
2023-02-20T04:05:50.900Z,16.00
2023-02-20T04:08:37.375Z,16.33
2023-02-20T04:11:19.122Z,17.08
2023-02-20T04:13:48.689Z,17.85
2023-02-20T04:16:16.465Z,17.88
2023-02-20T04:18:43.915Z,18.60
2023-02-20T04:21:28.532Z,20.10
2023-02-20T04:24:13.253Z,20.10
2023-02-20T04:26:40.711Z,20.77
2023-02-20T04:29:08.742Z,20.63
2023-02-20T04:31:36.945Z,20.83
2023-02-20T04:34:04.150Z,21.20
2023-02-20T04:36:31.568Z,22.50
2023-02-20T04:38:59.948Z,21.80
2023-02-20T04:41:31.556Z,22.13
2023-02-20T04:44:18.046Z,22.38
2023-02-20T04:46:47.983Z,22.55
2023-02-20T04:49:16.014Z,22.50
2023-02-20T04:51:47.818Z,23.85
2023-02-20T04:54:15.022Z,24.20
2023-02-20T04:56:42.375Z,24.83
2023-02-20T04:59:10.430Z,24.40
2023-02-20T05:01:38.040Z,23.90
2023-02-20T05:04:05.617Z,25.33
2023-02-20T05:06:32.886Z,25.20
2023-02-20T05:09:00.088Z,24.83
2023-02-20T05:11:27.334Z,25.40
2023-02-20T05:13:54.457Z,25.95
2023-02-20T05:16:21.700Z,27.60
2023-02-20T05:18:48.752Z,27.30
2023-02-20T05:21:34.804Z,25.42
2023-02-20T05:24:03.119Z,26.15
2023-02-20T05:26:31.182Z,25.75
2023-02-20T05:28:58.267Z,25.17
2023-02-20T05:31:25.476Z,24.27
2023-02-20T05:33:52.658Z,23.80
2023-02-20T05:36:20.914Z,23.55
2023-02-20T05:38:49.265Z,24.33
2023-02-20T05:41:16.983Z,24.27
2023-02-20T05:43:44.468Z,24.48
2023-02-20T05:46:12.653Z,23.90
2023-02-20T05:48:40.037Z,25.13
2023-02-20T05:51:07.107Z,23.77
2023-02-20T05:53:34.533Z,23.63
2023-02-20T05:56:03.526Z,23.52
2023-02-20T05:58:30.759Z,24.42
2023-02-20T06:00:57.789Z,23.80
2023-02-20T06:03:24.950Z,23.75
2023-02-20T06:05:52.302Z,22.23
2023-02-20T06:08:19.416Z,22.90
2023-02-20T06:10:46.787Z,22.40
2023-02-20T06:13:14.008Z,23.02
2023-02-20T06:15:41.132Z,21.95
2023-02-20T06:18:08.458Z,21.50
2023-02-20T06:20:35.516Z,21.25
2023-02-20T06:23:02.803Z,21.05
2023-02-20T06:25:29.911Z,20.80
2023-02-20T06:27:57.090Z,20.42
2023-02-20T06:30:25.286Z,19.30
2023-02-20T06:32:52.386Z,19.23
2023-02-20T06:35:19.703Z,18.80
2023-02-20T06:37:46.844Z,18.25
2023-02-20T06:40:13.979Z,18.02
2023-02-20T06:42:41.194Z,16.75
2023-02-20T06:45:08.576Z,16.85
2023-02-20T06:47:35.664Z,16.77
2023-02-20T06:50:03.969Z,15.82
2023-02-20T06:52:31.290Z,15.90
2023-02-20T06:54:59.229Z,15.95
2023-02-20T06:57:26.464Z,16.27
2023-02-20T06:59:53.651Z,15.55
2023-02-20T07:02:21.086Z,15.02
2023-02-20T07:04:49.780Z,14.60
2023-02-20T07:07:17.001Z,15.20
2023-02-20T07:09:44.678Z,14.13
2023-02-20T07:12:12.272Z,14.30
2023-02-20T07:14:39.582Z,14.45
2023-02-20T07:17:06.850Z,13.55
2023-02-20T07:19:33.916Z,13.48
2023-02-20T07:22:01.178Z,12.70
2023-02-20T07:24:28.662Z,13.60
2023-02-20T07:29:22.086Z,12.05
2023-02-20T07:31:49.379Z,12.35
2023-02-20T07:34:16.571Z,12.65
2023-02-20T07:36:43.842Z,12.75
2023-02-20T07:39:13.003Z,12.23
2023-02-20T07:41:40.975Z,12.63
2023-02-20T07:44:24.402Z,11.65
2023-02-20T07:46:51.600Z,11.60
2023-02-20T07:49:18.798Z,11.25
2023-02-20T07:51:45.870Z,11.60
2023-02-20T07:54:12.982Z,11.85
2023-02-20T07:56:42.882Z,11.70
2023-02-20T07:59:10.282Z,10.95
2023-02-20T08:01:38.625Z,11.30
2023-02-20T08:04:05.957Z,11.05
2023-02-20T08:06:33.145Z,10.82
2023-02-20T08:09:00.241Z,9.90
2023-02-20T08:11:27.621Z,10.60
2023-02-20T08:13:55.737Z,10.07
2023-02-20T08:16:23.188Z,10.30
2023-02-20T08:18:50.409Z,9.45
2023-02-20T08:21:17.673Z,9.30
2023-02-20T08:23:44.811Z,9.52
2023-02-20T08:26:12.636Z,9.35
2023-02-20T08:28:40.325Z,9.75
2023-02-20T08:31:08.490Z,9.70
2023-02-20T08:33:35.634Z,8.88
2023-02-20T08:36:02.830Z,8.98
2023-02-20T08:38:37.079Z,8.73
2023-02-20T08:41:10.547Z,8.93
2023-02-20T08:43:40.107Z,9.18
2023-02-20T08:46:08.056Z,9.38
2023-02-20T08:48:35.533Z,9.02
2023-02-20T08:51:03.377Z,8.77
2023-02-20T08:53:30.561Z,9.40
2023-02-20T08:55:57.762Z,9.05
2023-02-20T08:58:26.389Z,8.95
2023-02-20T09:00:54.657Z,8.65
2023-02-20T09:03:22.798Z,9.30
2023-02-20T09:05:50.200Z,8.32
2023-02-20T09:08:17.639Z,8.75
2023-02-20T09:10:45.166Z,9.43
2023-02-20T09:13:13.025Z,9.73
2023-02-20T09:15:40.292Z,9.60
2023-02-20T09:18:12.364Z,8.80
2023-02-20T09:20:40.377Z,9.95
2023-02-20T09:23:07.937Z,8.68
2023-02-20T09:25:36.095Z,8.68
2023-02-20T09:28:03.501Z,8.60
2023-02-20T09:30:30.676Z,8.95
2023-02-20T09:32:57.888Z,8.70
2023-02-20T09:35:28.521Z,8.70
2023-02-20T09:37:56.181Z,8.88
2023-02-20T09:40:26.477Z,9.00
2023-02-20T09:43:13.693Z,8.48
2023-02-20T09:45:49.472Z,8.10
2023-02-20T09:48:44.352Z,8.18
2023-02-20T09:51:22.526Z,8.82
2023-02-20T09:54:01.194Z,8.40
2023-02-20T09:56:33.662Z,8.93
2023-02-20T09:59:32.319Z,8.82
2023-02-20T10:02:09.027Z,9.52
2023-02-20T10:04:55.433Z,8.68
2023-02-20T10:07:41.410Z,8.88
2023-02-20T10:10:26.898Z,8.77
2023-02-20T10:13:28.869Z,9.75
2023-02-20T10:16:02.805Z,8.95
2023-02-20T10:18:51.542Z,9.15
2023-02-20T10:22:03.025Z,9.25
2023-02-20T10:24:54.165Z,8.98
2023-02-20T10:27:36.198Z,8.77
2023-02-20T10:30:05.574Z,9.43
2023-02-20T10:32:44.783Z,8.50
2023-02-20T10:35:22.666Z,8.18
2023-02-20T10:37:56.078Z,8.63
2023-02-20T10:40:45.782Z,8.55
2023-02-20T10:43:25.565Z,8.68
2023-02-20T10:46:49.412Z,8.10
2023-02-20T10:49:42.329Z,8.05
2023-02-20T10:52:29.590Z,7.63
2023-02-20T10:55:17.602Z,7.40
2023-02-20T10:57:51.064Z,7.57
2023-02-20T11:00:28.122Z,7.53
2023-02-20T11:03:03.386Z,7.63
2023-02-20T11:05:38.011Z,7.68
2023-02-20T11:08:05.212Z,7.85
2023-02-20T11:10:34.571Z,7.75
2023-02-20T11:13:02.554Z,7.30
2023-02-20T11:15:33.733Z,7.55
2023-02-20T11:18:01.127Z,7.38
2023-02-20T11:20:43.142Z,7.25
2023-02-20T11:23:11.633Z,6.80
2023-02-20T11:25:42.103Z,7.07
2023-02-20T11:28:23.157Z,7.07
2023-02-20T11:31:09.346Z,6.97
2023-02-20T11:33:50.247Z,7.30
2023-02-20T11:36:27.568Z,6.80
2023-02-20T11:39:27.180Z,6.55
2023-02-20T11:42:17.153Z,7.00
2023-02-20T11:44:44.854Z,6.70
2023-02-20T11:47:30.452Z,6.75
2023-02-20T11:50:20.532Z,6.50
2023-02-20T11:53:08.040Z,7.07
2023-02-20T11:55:35.913Z,6.70
2023-02-20T11:58:03.687Z,6.72
2023-02-20T12:00:49.809Z,7.22
2023-02-20T12:03:29.680Z,7.28
2023-02-20T12:05:59.120Z,6.45
2023-02-20T12:08:55.286Z,7.13
2023-02-20T12:11:26.665Z,6.47
2023-02-20T12:13:58.226Z,7.03
2023-02-20T12:17:06.339Z,6.78
2023-02-20T12:20:09.925Z,7.25
2023-02-20T12:22:45.916Z,7.47
2023-02-20T12:25:52.579Z,7.20
2023-02-20T12:29:01.896Z,7.50
2023-02-20T12:31:36.351Z,6.75
2023-02-20T12:34:31.577Z,6.90
2023-02-20T12:37:22.990Z,6.68
2023-02-20T12:40:03.854Z,6.68
2023-02-20T12:43:00.311Z,7.03
2023-02-20T12:45:38.766Z,7.13
2023-02-20T12:48:57.907Z,7.30
2023-02-20T12:51:41.916Z,7.35
2023-02-20T12:54:55.501Z,7.07
2023-02-20T12:57:42.762Z,7.65
2023-02-20T13:00:31.894Z,7.57
2023-02-20T13:03:22.022Z,6.93
2023-02-20T13:05:51.547Z,7.35
2023-02-20T13:08:25.516Z,7.53
2023-02-20T13:10:58.658Z,6.70
2023-02-20T13:13:54.889Z,6.47
2023-02-20T13:16:35.857Z,7.05
2023-02-20T13:19:15.218Z,6.50
2023-02-20T13:21:42.386Z,6.82
2023-02-20T13:24:21.463Z,7.20
2023-02-20T13:27:07.016Z,7.15
2023-02-20T13:29:56.077Z,7.13
2023-02-20T13:32:28.624Z,7.25
2023-02-20T13:35:51.303Z,7.35
2023-02-20T13:38:21.981Z,7.10
2023-02-20T13:40:58.958Z,7.00
2023-02-20T13:43:39.942Z,6.97
2023-02-20T13:46:14.912Z,7.38
2023-02-20T13:48:46.539Z,6.57
2023-02-20T13:51:16.787Z,7.05
2023-02-20T13:53:55.301Z,6.93
2023-02-20T13:56:27.619Z,7.35
2023-02-20T13:58:58.434Z,7.07
2023-02-20T14:01:26.210Z,7.32
2023-02-20T14:04:05.340Z,7.20
2023-02-20T14:06:33.062Z,7.00
2023-02-20T14:09:17.036Z,7.35
2023-02-20T14:11:45.618Z,7.20
2023-02-20T14:14:33.684Z,6.82
2023-02-20T14:17:22.100Z,6.53
2023-02-20T14:20:34.002Z,7.68
2023-02-20T14:23:13.445Z,6.85
2023-02-20T14:25:46.614Z,7.40
2023-02-20T14:28:23.104Z,6.45
2023-02-20T14:31:23.344Z,6.93
2023-02-20T14:33:58.537Z,6.88
2023-02-20T14:36:31.666Z,6.70
2023-02-20T14:39:27.992Z,6.90
2023-02-20T14:42:04.796Z,6.90
2023-02-20T14:44:33.596Z,7.32
2023-02-20T14:47:15.617Z,6.70
2023-02-20T14:49:43.043Z,6.72
2023-02-20T14:52:10.120Z,7.35
2023-02-20T14:54:40.208Z,7.25
2023-02-20T14:57:12.385Z,6.55
2023-02-20T14:59:40.304Z,7.25
2023-02-20T15:02:34.323Z,6.97
2023-02-20T15:05:09.301Z,7.30
2023-02-20T15:07:39.927Z,7.00
2023-02-20T15:10:35.367Z,6.50
2023-02-20T15:13:15.945Z,6.75
2023-02-20T15:15:49.641Z,5.88
2023-02-20T15:18:34.834Z,6.45
2023-02-20T15:21:03.924Z,6.45
2023-02-20T15:23:41.351Z,6.75
2023-02-20T15:26:32.111Z,6.57
2023-02-20T15:29:28.597Z,6.20
2023-02-20T15:32:06.740Z,6.40
2023-02-20T15:34:38.324Z,7.07
2023-02-20T15:37:38.706Z,6.93
2023-02-20T15:40:27.760Z,6.82
2023-02-20T15:43:04.481Z,7.30
2023-02-20T15:45:32.360Z,7.60
2023-02-20T15:47:59.434Z,6.82
2023-02-20T15:50:27.422Z,7.32
2023-02-20T15:52:55.972Z,6.78
2023-02-20T15:55:24.793Z,7.00
2023-02-20T15:57:56.897Z,6.72
2023-02-20T16:00:32.957Z,7.15
2023-02-20T16:05:31.429Z,6.75
2023-02-20T16:07:58.862Z,6.88
2023-02-20T16:10:26.301Z,7.38
2023-02-20T16:12:56.312Z,7.05
2023-02-20T16:15:25.241Z,7.65
2023-02-20T16:17:53.464Z,7.78
2023-02-20T16:20:27.980Z,7.78
2023-02-20T16:22:55.865Z,8.32
2023-02-20T16:25:24.349Z,7.95
2023-02-20T16:27:54.724Z,8.15
2023-02-20T16:30:39.041Z,8.48
2023-02-20T16:33:32.731Z,8.93
2023-02-20T16:35:59.879Z,8.75
2023-02-20T16:38:27.268Z,8.73
2023-02-20T16:40:54.968Z,9.25
2023-02-20T16:43:23.718Z,9.02
2023-02-20T16:45:51.079Z,9.50
2023-02-20T16:48:20.849Z,9.32
2023-02-20T16:50:51.185Z,9.52
2023-02-20T16:53:18.887Z,9.68
2023-02-20T16:55:47.394Z,9.13
2023-02-20T16:58:15.026Z,9.30
2023-02-20T17:00:56.293Z,10.07
2023-02-20T17:03:25.384Z,9.35
2023-02-20T17:05:59.308Z,9.65
2023-02-20T17:08:27.310Z,8.65
2023-02-20T17:10:54.936Z,9.20
2023-02-20T17:13:22.297Z,9.05
2023-02-20T17:15:49.494Z,8.75
2023-02-20T17:18:16.807Z,9.52
2023-02-20T17:20:44.118Z,9.15
2023-02-20T17:23:11.230Z,9.27
2023-02-20T17:25:38.465Z,9.43
2023-02-20T17:28:06.583Z,9.48
2023-02-20T17:30:34.001Z,9.57
2023-02-20T17:33:01.233Z,9.07
2023-02-20T17:35:29.003Z,10.50
2023-02-20T17:37:56.125Z,9.65
2023-02-20T17:40:23.671Z,10.07
2023-02-20T17:42:51.078Z,10.32
2023-02-20T17:45:18.345Z,9.95
2023-02-20T17:47:45.812Z,10.50
2023-02-20T17:50:12.931Z,10.90
2023-02-20T17:52:40.163Z,10.65
2023-02-20T17:55:08.304Z,11.70
2023-02-20T17:57:35.530Z,11.57
2023-02-20T18:00:07.255Z,11.38
2023-02-20T18:02:34.649Z,10.98
2023-02-20T18:05:01.980Z,11.27
2023-02-20T18:07:30.326Z,11.32
2023-02-20T18:09:58.126Z,11.90
2023-02-20T18:12:25.526Z,11.65
2023-02-20T18:14:54.650Z,11.50
2023-02-20T18:17:23.392Z,11.65
2023-02-20T18:19:50.754Z,11.75
2023-02-20T18:22:17.922Z,11.93
2023-02-20T18:24:45.334Z,11.50
2023-02-20T18:27:12.772Z,12.00
2023-02-20T18:29:40.082Z,12.18
2023-02-20T18:32:09.134Z,12.13
2023-02-20T18:34:36.690Z,12.60
2023-02-20T18:37:03.759Z,11.80
2023-02-20T18:39:31.207Z,12.20
2023-02-20T18:41:58.582Z,12.55
2023-02-20T18:44:25.962Z,13.57
2023-02-20T18:46:53.210Z,11.98
2023-02-20T18:49:20.601Z,14.15
2023-02-20T18:51:47.882Z,13.57
2023-02-20T18:54:19.468Z,13.57
2023-02-20T18:56:49.315Z,12.43
2023-02-20T18:59:17.883Z,11.82
2023-02-20T19:01:45.549Z,12.80
2023-02-20T19:04:14.418Z,12.38
2023-02-20T19:06:44.068Z,11.82
2023-02-20T19:09:18.830Z,12.13
2023-02-20T19:11:56.582Z,12.07
2023-02-20T19:14:28.002Z,12.25
2023-02-20T19:16:59.756Z,13.15
2023-02-20T19:19:30.702Z,13.02
2023-02-20T19:21:58.928Z,12.75
2023-02-20T19:24:26.218Z,12.85
2023-02-20T19:26:53.793Z,12.60
2023-02-20T19:29:21.297Z,12.90
2023-02-20T19:31:48.542Z,13.25
2023-02-20T19:34:16.202Z,12.52
2023-02-20T19:36:43.898Z,13.02
2023-02-20T19:39:13.288Z,13.35
2023-02-20T19:41:40.908Z,13.70
2023-02-20T19:44:14.535Z,13.27
2023-02-20T19:46:41.651Z,13.90
2023-02-20T19:49:12.640Z,13.43
2023-02-20T19:51:47.299Z,14.70
2023-02-20T19:54:17.137Z,14.88
2023-02-20T19:56:54.142Z,14.48
2023-02-20T19:59:23.125Z,14.27
2023-02-20T20:01:57.149Z,13.30
2023-02-20T20:04:28.453Z,14.30
2023-02-20T20:06:55.714Z,14.15
2023-02-20T20:09:35.724Z,13.30
2023-02-20T20:12:04.938Z,13.60
2023-02-20T20:14:32.323Z,13.70
2023-02-20T20:16:59.583Z,13.55
2023-02-20T20:19:26.866Z,13.15
2023-02-20T20:21:54.482Z,12.52
2023-02-20T20:24:21.814Z,12.70
2023-02-20T20:26:49.085Z,13.10
2023-02-20T20:29:16.197Z,12.88
2023-02-20T20:31:43.525Z,12.63
2023-02-20T20:34:10.688Z,12.95
2023-02-20T20:36:38.064Z,12.45
2023-02-20T20:39:05.575Z,13.15
2023-02-20T20:41:43.933Z,12.95
2023-02-20T20:44:13.445Z,13.90
2023-02-20T20:46:40.984Z,13.50
2023-02-20T20:49:08.174Z,15.18
2023-02-20T20:51:35.398Z,15.00
2023-02-20T20:54:05.762Z,14.82
2023-02-20T20:56:34.203Z,15.23
2023-02-20T20:59:01.391Z,15.07
2023-02-20T21:01:28.586Z,16.02
2023-02-20T21:03:55.710Z,15.70
2023-02-20T21:06:22.830Z,16.52
2023-02-20T21:08:50.051Z,16.42
2023-02-20T21:11:17.771Z,15.95
2023-02-20T21:13:49.195Z,16.48
2023-02-20T21:16:18.634Z,15.98
2023-02-20T21:18:46.879Z,15.73
2023-02-20T21:21:14.638Z,16.33
2023-02-20T21:23:45.349Z,16.77
2023-02-20T21:26:13.747Z,16.27
2023-02-20T21:28:40.886Z,17.35
2023-02-20T21:31:08.184Z,18.20
2023-02-20T21:33:35.309Z,18.50
2023-02-20T21:36:04.828Z,18.83
2023-02-20T21:38:35.425Z,16.30
2023-02-20T21:41:04.370Z,17.50
2023-02-20T21:43:49.772Z,17.95
2023-02-20T21:46:19.765Z,17.73
2023-02-20T21:48:47.162Z,17.20
2023-02-20T21:51:19.824Z,16.65
2023-02-20T21:53:46.937Z,17.02
2023-02-20T21:56:14.182Z,16.88
2023-02-20T21:58:59.883Z,15.90
2023-02-20T22:01:28.528Z,15.90
2023-02-20T22:03:55.709Z,15.45
2023-02-20T22:06:23.366Z,15.25
2023-02-20T22:09:09.377Z,15.10
2023-02-20T22:11:54.747Z,15.55
2023-02-20T22:14:40.888Z,15.25
2023-02-20T22:17:27.324Z,15.38
2023-02-20T22:20:15.426Z,14.48
2023-02-20T22:23:01.454Z,14.73
2023-02-20T22:25:47.457Z,14.77
2023-02-20T22:28:34.044Z,14.68
2023-02-20T22:34:06.857Z,15.00
2023-02-20T22:36:52.798Z,15.60
2023-02-20T22:39:39.469Z,15.52
2023-02-20T22:42:34.301Z,15.20
2023-02-20T22:45:21.751Z,16.48
2023-02-20T22:48:07.511Z,15.18
2023-02-20T22:50:53.066Z,14.80
2023-02-20T22:53:38.618Z,16.27
2023-02-20T22:56:24.473Z,15.43
2023-02-20T22:59:10.000Z,15.07
2023-02-20T23:01:55.684Z,15.23
2023-02-20T23:04:41.365Z,15.77
2023-02-20T23:07:26.772Z,15.20
2023-02-20T23:10:12.316Z,15.25
2023-02-20T23:12:58.457Z,16.13
2023-02-20T23:15:43.878Z,15.27
2023-02-20T23:18:31.465Z,15.93
2023-02-20T23:21:17.429Z,15.90
2023-02-20T23:24:03.023Z,16.45
2023-02-20T23:26:48.444Z,17.05
2023-02-20T23:29:34.046Z,17.80
2023-02-20T23:32:19.950Z,17.67
2023-02-20T23:35:06.257Z,16.02
2023-02-20T23:37:52.478Z,16.55
2023-02-20T23:40:38.871Z,16.95
2023-02-20T23:43:28.429Z,16.38
2023-02-20T23:46:14.590Z,16.42
2023-02-20T23:49:00.112Z,16.10
2023-02-20T23:51:45.702Z,17.17
2023-02-20T23:54:31.369Z,17.17
2023-02-20T23:57:17.043Z,17.37
